Time;durP1;ratioP1;P1;durP2;ratioP2;P2;SDS_P1;SDS_P2;PMS_P1;PMS_P2;Temp;Humidity;BMP_temperature;BMP_pressure;BME280_temperature;BME280_humidity;BME280_pressure;Samples;Min_cycle;Max_cycle;Signal;HPM_P1;HPM_P2
2023/04/04 00:01:02;;;;;;;;;;;20.40;43.80;;;;;;1544349;75;1108;-64
2023/04/04 00:03:04;;;;;;;;;;;20.40;43.80;;;;;;1548342;75;1170;-65
2023/04/04 00:05:07;;;;;;;;;;;20.40;43.80;;;;;;1554867;75;806;-65
2023/04/04 00:07:09;;;;;;;;;;;20.40;43.90;;;;;;1554146;75;673;-66
2023/04/04 00:09:11;;;;;;;;;;;20.40;43.80;;;;;;1543336;75;1541;-65
2023/04/04 00:11:13;;;;;;;;;;;20.40;43.80;;;;;;1548523;75;747;-64
2023/04/04 00:13:15;;;;;;;;;;;20.40;43.80;;;;;;1552339;75;1123;-70
2023/04/04 00:15:17;;;;;;;;;;;20.40;43.90;;;;;;1550699;75;1919;-65
2023/04/04 00:17:19;;;;;;;;;;;20.40;43.80;;;;;;1555099;75;737;-65
2023/04/04 00:19:21;;;;;;;;;;;20.40;43.80;;;;;;1547040;75;706;-65
2023/04/04 00:21:24;;;;;;;;;;;20.40;43.70;;;;;;1560930;75;941;-65
2023/04/04 00:23:26;;;;;;;;;;;20.40;43.80;;;;;;1546836;75;1881;-65
2023/04/04 00:25:28;;;;;;;;;;;20.40;43.80;;;;;;1554479;75;712;-65
2023/04/04 00:27:30;;;;;;;;;;;20.40;43.80;;;;;;1541937;75;662;-65
2023/04/04 00:29:33;;;;;;;;;;;20.40;43.80;;;;;;1558519;75;677;-65
2023/04/04 00:31:35;;;;;;;;;;;20.40;43.70;;;;;;1557474;75;849;-66
2023/04/04 00:33:37;;;;;;;;;;;20.40;43.80;;;;;;1552237;75;1142;-65
2023/04/04 00:35:39;;;;;;;;;;;20.40;43.80;;;;;;1552900;75;1943;-65
2023/04/04 00:37:41;;;;;;;;;;;20.40;43.90;;;;;;1563880;75;694;-65
2023/04/04 00:39:43;;;;;;;;;;;20.40;43.80;;;;;;1556282;75;696;-65
2023/04/04 00:41:47;;;;;;;;;;;20.40;43.90;;;;;;1561618;75;771;-65
2023/04/04 00:43:49;;;;;;;;;;;20.40;43.80;;;;;;1553955;75;1142;-64
2023/04/04 00:45:51;;;;;;;;;;;20.30;43.80;;;;;;1559178;75;723;-65
2023/04/04 00:47:53;;;;;;;;;;;20.40;43.80;;;;;;1559376;75;664;-65
2023/04/04 00:49:55;;;;;;;;;;;20.10;43.70;;;;;;1550272;75;1557;-65
2023/04/04 00:51:58;;;;;;;;;;;20.40;43.90;;;;;;1559077;75;765;-65
2023/04/04 00:54:00;;;;;;;;;;;20.30;43.90;;;;;;1556247;75;1182;-65
2023/04/04 00:56:02;;;;;;;;;;;20.30;43.80;;;;;;1552110;75;1930;-65
2023/04/04 00:58:04;;;;;;;;;;;20.30;43.80;;;;;;1547057;75;692;-65
2023/04/04 01:00:06;;;;;;;;;;;20.40;43.80;;;;;;1551454;75;741;-64
2023/04/04 01:02:08;;;;;;;;;;;20.30;43.90;;;;;;1551834;75;1103;-64
2023/04/04 01:04:10;;;;;;;;;;;20.30;43.80;;;;;;1557777;75;1566;-65
2023/04/04 01:06:12;;;;;;;;;;;20.30;43.80;;;;;;1549180;75;715;-65
2023/04/04 01:08:16;;;;;;;;;;;20.30;43.80;;;;;;1545596;75;731;-66
2023/04/04 01:10:18;;;;;;;;;;;20.30;43.80;;;;;;1537295;75;724;-65
2023/04/04 01:12:20;;;;;;;;;;;20.30;43.80;;;;;;1550334;75;724;-65
2023/04/04 01:14:22;;;;;;;;;;;20.30;43.80;;;;;;1542089;75;1143;-64
2023/04/04 01:16:24;;;;;;;;;;;20.30;43.70;;;;;;1551826;75;1932;-64
2023/04/04 01:18:26;;;;;;;;;;;20.40;43.80;;;;;;1541143;75;1344;-66
2023/04/04 01:20:29;;;;;;;;;;;20.40;43.80;;;;;;1547378;75;692;-66
2023/04/04 01:22:31;;;;;;;;;;;20.40;43.80;;;;;;1547998;75;688;-66
2023/04/04 01:24:33;;;;;;;;;;;20.30;43.80;;;;;;1554975;75;1130;-71
2023/04/04 01:26:36;;;;;;;;;;;20.30;43.80;;;;;;1562619;75;721;-65
2023/04/04 01:28:38;;;;;;;;;;;20.30;43.80;;;;;;1540796;75;723;-66
2023/04/04 01:30:40;;;;;;;;;;;20.30;43.70;;;;;;1558815;75;709;-66
2023/04/04 01:32:58;;;;;;;;;;;20.30;43.70;;;;;;1548436;75;1562;-66
2023/04/04 01:35:02;;;;;;;;;;;20.40;43.70;;;;;;1555078;75;717;-64
2023/04/04 01:37:09;;;;;;;;;;;20.40;43.80;;;;;;1544555;75;1920;-65
2023/04/04 01:39:24;;;;;;;;;;;20.30;43.70;;;;;;1558669;75;1141;-64
2023/04/04 01:41:26;;;;;;;;;;;20.30;43.80;;;;;;1545655;75;751;-68
2023/04/04 01:43:31;;;;;;;;;;;20.30;43.70;;;;;;1555692;75;1144;-66
2023/04/04 01:45:34;;;;;;;;;;;20.30;43.70;;;;;;1560753;75;776;-65
2023/04/04 01:47:41;;;;;;;;;;;20.30;43.80;;;;;;1546958;75;1685;-65
2023/04/04 01:49:43;;;;;;;;;;;20.20;43.60;;;;;;1551274;75;677;-66
2023/04/04 01:51:45;;;;;;;;;;;20.30;43.70;;;;;;1556897;75;718;-65
2023/04/04 01:53:47;;;;;;;;;;;20.40;43.70;;;;;;1554688;75;1145;-65
2023/04/04 01:55:49;;;;;;;;;;;20.30;43.70;;;;;;1559098;75;1931;-65
2023/04/04 01:57:51;;;;;;;;;;;20.30;43.80;;;;;;1546612;75;685;-65
2023/04/04 01:59:53;;;;;;;;;;;20.30;43.70;;;;;;1554075;75;1509;-64
2023/04/04 02:01:55;;;;;;;;;;;20.30;43.70;;;;;;1554040;74;1076;-65
2023/04/04 02:03:57;;;;;;;;;;;20.30;43.70;;;;;;1550347;75;1226;-65
2023/04/04 02:05:59;;;;;;;;;;;20.30;43.70;;;;;;1553141;75;809;-65
2023/04/04 02:08:01;;;;;;;;;;;20.40;43.70;;;;;;1534798;75;721;-65
2023/04/04 02:10:04;;;;;;;;;;;20.30;43.70;;;;;;1535189;75;711;-65
2023/04/04 02:12:06;;;;;;;;;;;20.30;43.70;;;;;;1551522;75;724;-65
2023/04/04 02:14:08;;;;;;;;;;;20.30;43.70;;;;;;1540169;75;1575;-66
2023/04/04 02:16:10;;;;;;;;;;;20.30;43.60;;;;;;1536357;75;1925;-65
2023/04/04 02:18:12;;;;;;;;;;;20.30;43.70;;;;;;1544958;75;749;-65
2023/04/04 02:20:17;;;;;;;;;;;20.30;43.60;;;;;;1543976;75;684;-66
2023/04/04 02:22:18;;;;;;;;;;;20.30;43.70;;;;;;1550677;75;1164;-65
2023/04/04 02:24:20;;;;;;;;;;;20.30;43.70;;;;;;1547445;75;1102;-66
2023/04/04 02:26:22;;;;;;;;;;;20.20;43.60;;;;;;1550188;75;701;-66
2023/04/04 02:28:24;;;;;;;;;;;20.30;43.70;;;;;;1539095;75;1609;-66
2023/04/04 02:30:26;;;;;;;;;;;20.30;43.60;;;;;;1552973;75;683;-65
2023/04/04 02:32:28;;;;;;;;;;;20.30;43.60;;;;;;1549371;75;695;-65
2023/04/04 02:34:30;;;;;;;;;;;20.30;43.60;;;;;;1550749;75;1122;-65
2023/04/04 02:36:31;;;;;;;;;;;20.30;43.60;;;;;;1552200;75;1940;-65
2023/04/04 02:38:33;;;;;;;;;;;20.20;43.50;;;;;;1551763;75;733;-65
2023/04/04 02:40:38;;;;;;;;;;;20.30;43.60;;;;;;1533873;75;735;-65
2023/04/04 02:42:42;;;;;;;;;;;20.30;43.60;;;;;;1528176;75;1331;-65
2023/04/04 02:44:44;;;;;;;;;;;20.30;43.60;;;;;;1552143;75;1118;-65
2023/04/04 02:46:47;;;;;;;;;;;20.20;43.50;;;;;;1538452;75;642;-65
2023/04/04 02:48:50;;;;;;;;;;;20.30;43.60;;;;;;1545958;75;665;-65
2023/04/04 02:50:52;;;;;;;;;;;20.20;43.50;;;;;;1547792;75;731;-74
2023/04/04 02:52:56;;;;;;;;;;;20.30;43.60;;;;;;1550962;75;1162;-64
2023/04/04 02:54:58;;;;;;;;;;;20.30;43.70;;;;;;1543110;75;1083;-65
2023/04/04 02:56:59;;;;;;;;;;;20.30;43.60;;;;;;1548986;75;1940;-65
2023/04/04 02:59:02;;;;;;;;;;;20.20;43.50;;;;;;1550204;75;724;-65
2023/04/04 03:01:04;;;;;;;;;;;20.30;43.60;;;;;;1541699;75;896;-65
2023/04/04 03:03:06;;;;;;;;;;;20.30;43.50;;;;;;1553022;75;1181;-64
2023/04/04 03:05:08;;;;;;;;;;;20.30;43.60;;;;;;1540995;76;715;-65
2023/04/04 03:07:11;;;;;;;;;;;19.80;43.20;;;;;;1529227;76;682;-65
2023/04/04 03:09:13;;;;;;;;;;;20.20;43.40;;;;;;1541056;76;739;-65
2023/04/04 03:11:23;;;;;;;;;;;20.20;43.50;;;;;;1529268;76;1533;-66
2023/04/04 03:13:22;;;;;;;;;;;20.30;43.60;;;;;;1523860;76;1146;-65
2023/04/04 03:15:25;;;;;;;;;;;20.20;43.50;;;;;;1531799;76;838;-65
2023/04/04 03:17:28;;;;;;;;;;;20.30;43.60;;;;;;1535364;76;1915;-65
2023/04/04 03:19:29;;;;;;;;;;;20.20;43.50;;;;;;1542048;76;748;-65
2023/04/04 03:21:31;;;;;;;;;;;20.20;43.50;;;;;;1525568;76;709;-65
2023/04/04 03:23:33;;;;;;;;;;;20.20;43.40;;;;;;1533069;76;1183;-68
2023/04/04 03:25:35;;;;;;;;;;;20.20;43.40;;;;;;1520506;76;1522;-66
2023/04/04 03:27:38;;;;;;;;;;;20.20;43.40;;;;;;1551648;76;728;-65
2023/04/04 03:29:41;;;;;;;;;;;20.20;43.50;;;;;;1541828;76;720;-65
2023/04/04 03:31:42;;;;;;;;;;;20.20;43.40;;;;;;1531901;76;733;-65
2023/04/04 03:33:44;;;;;;;;;;;20.20;43.40;;;;;;1524862;76;1139;-65
2023/04/04 03:35:46;;;;;;;;;;;20.30;43.60;;;;;;1532705;76;729;-65
2023/04/04 03:37:48;;;;;;;;;;;20.20;43.40;;;;;;1539734;76;1944;-64
2023/04/04 03:39:50;;;;;;;;;;;20.30;43.60;;;;;;1540635;76;1616;-65
2023/04/04 03:41:52;;;;;;;;;;;20.30;43.50;;;;;;1549458;76;727;-64
2023/04/04 03:43:54;;;;;;;;;;;20.30;43.50;;;;;;1542131;76;1077;-65
2023/04/04 03:45:58;;;;;;;;;;;20.20;43.40;;;;;;1531314;76;703;-65
2023/04/04 03:48:00;;;;;;;;;;;20.20;43.40;;;;;;1545171;76;1060;-65
2023/04/04 03:50:02;;;;;;;;;;;20.20;43.50;;;;;;1542151;76;728;-64
2023/04/04 03:52:04;;;;;;;;;;;20.20;43.40;;;;;;1526674;76;722;-65
2023/04/04 03:54:06;;;;;;;;;;;20.20;43.40;;;;;;1529440;76;1660;-65
2023/04/04 03:56:07;;;;;;;;;;;20.20;43.50;;;;;;1556922;76;737;-65
2023/04/04 03:58:09;;;;;;;;;;;20.20;43.40;;;;;;1541496;76;1942;-65
2023/04/04 04:00:12;;;;;;;;;;;20.20;43.50;;;;;;1538870;76;801;-65
2023/04/04 04:02:14;;;;;;;;;;;20.20;43.40;;;;;;1533946;76;716;-66
2023/04/04 04:04:16;;;;;;;;;;;20.20;43.40;;;;;;1537002;76;1136;-70
2023/04/04 04:06:17;;;;;;;;;;;20.20;43.40;;;;;;1542405;76;706;-65
2023/04/04 04:08:20;;;;;;;;;;;20.30;43.50;;;;;;1536384;76;1674;-65
2023/04/04 04:10:22;;;;;;;;;;;20.20;43.40;;;;;;1516844;76;784;-69
2023/04/04 04:12:25;;;;;;;;;;;20.20;43.40;;;;;;1520948;76;727;-65
2023/04/04 04:14:26;;;;;;;;;;;20.20;43.40;;;;;;1535899;76;1167;-65
2023/04/04 04:16:28;;;;;;;;;;;20.20;43.40;;;;;;1518046;76;727;-65
2023/04/04 04:18:31;;;;;;;;;;;20.20;43.30;;;;;;1523414;76;1957;-65
2023/04/04 04:20:33;;;;;;;;;;;20.30;43.50;;;;;;1525250;76;1491;-64
2023/04/04 04:22:35;;;;;;;;;;;20.30;43.50;;;;;;1537600;76;560;-65
2023/04/04 04:24:37;;;;;;;;;;;20.20;43.30;;;;;;1520905;76;1122;-66
2023/04/04 04:26:39;;;;;;;;;;;20.10;43.60;;;;;;1525472;76;738;-66
2023/04/04 04:28:41;;;;;;;;;;;20.00;43.70;;;;;;1546550;76;729;-66
2023/04/04 04:30:43;;;;;;;;;;;19.90;43.90;;;;;;1522011;76;722;-65
2023/04/04 04:32:45;;;;;;;;;;;19.90;44.20;;;;;;1520887;76;711;-65
2023/04/04 04:34:47;;;;;;;;;;;19.90;44.20;;;;;;1540026;76;1478;-65
2023/04/04 04:36:49;;;;;;;;;;;19.80;44.30;;;;;;1549866;76;1916;-66
2023/04/04 04:38:51;;;;;;;;;;;19.80;44.30;;;;;;1533080;76;754;-65
2023/04/04 04:40:53;;;;;;;;;;;19.90;44.40;;;;;;1538167;76;768;-65
2023/04/04 04:42:55;;;;;;;;;;;20.00;44.20;;;;;;1532236;76;1175;-65
2023/04/04 04:44:57;;;;;;;;;;;20.00;44.00;;;;;;1525425;76;708;-66
2023/04/04 04:46:59;;;;;;;;;;;20.20;44.00;;;;;;1536335;76;737;-65
2023/04/04 04:49:01;;;;;;;;;;;20.20;43.90;;;;;;1529158;76;1553;-66
2023/04/04 04:51:03;;;;;;;;;;;20.20;43.80;;;;;;1538245;76;782;-65
2023/04/04 04:53:05;;;;;;;;;;;20.20;43.70;;;;;;1540275;76;1136;-70
2023/04/04 04:55:07;;;;;;;;;;;20.20;43.70;;;;;;1534931;76;790;-65
2023/04/04 04:57:09;;;;;;;;;;;20.20;43.60;;;;;;1524611;76;1937;-65
2023/04/04 04:59:11;;;;;;;;;;;20.30;43.70;;;;;;1535904;76;728;-65
2023/04/04 05:01:13;;;;;;;;;;;20.30;43.60;;;;;;1543564;76;708;-64
2023/04/04 05:03:15;;;;;;;;;;;20.30;43.70;;;;;;1521912;76;1510;-65
2023/04/04 05:05:17;;;;;;;;;;;20.30;43.60;;;;;;1541160;75;1085;-66
2023/04/04 05:07:19;;;;;;;;;;;20.30;43.60;;;;;;1555606;75;599;-64
2023/04/04 05:09:21;;;;;;;;;;;20.30;43.70;;;;;;1544565;75;685;-65
2023/04/04 05:11:23;;;;;;;;;;;20.40;43.70;;;;;;1534658;75;727;-65
2023/04/04 05:13:24;;;;;;;;;;;20.20;43.50;;;;;;1550837;75;1186;-65
2023/04/04 05:15:28;;;;;;;;;;;20.30;43.60;;;;;;1558663;75;719;-65
2023/04/04 05:17:30;;;;;;;;;;;20.40;43.60;;;;;;1555411;75;1916;-65
2023/04/04 05:19:32;;;;;;;;;;;20.60;43.60;;;;;;1552130;75;718;-65
2023/04/04 05:21:34;;;;;;;;;;;20.90;43.70;;;;;;1551511;75;718;-65
2023/04/04 05:23:36;;;;;;;;;;;21.40;43.80;;;;;;1549170;75;1159;-66
2023/04/04 05:25:38;;;;;;;;;;;21.90;43.60;;;;;;1545826;75;762;-65
2023/04/04 05:27:40;;;;;;;;;;;22.50;42.70;;;;;;1551141;75;722;-66
2023/04/04 05:29:42;;;;;;;;;;;23.00;41.50;;;;;;1550414;75;686;-66
2023/04/04 05:31:44;;;;;;;;;;;23.40;40.00;;;;;;1546152;75;1531;-67
2023/04/04 05:33:46;;;;;;;;;;;23.60;39.20;;;;;;1549869;75;1133;-65
2023/04/04 05:35:48;;;;;;;;;;;23.80;38.60;;;;;;1540780;75;704;-65
2023/04/04 05:37:50;;;;;;;;;;;24.10;37.30;;;;;;1560534;75;1932;-65
2023/04/04 05:39:52;;;;;;;;;;;24.20;36.50;;;;;;1543808;75;698;-66
2023/04/04 05:41:54;;;;;;;;;;;24.00;35.60;;;;;;1538748;75;706;-65
2023/04/04 05:43:56;;;;;;;;;;;23.70;35.80;;;;;;1555083;75;1211;-65
2023/04/04 05:45:58;;;;;;;;;;;23.50;35.60;;;;;;1542970;75;1361;-65
2023/04/04 05:47:59;;;;;;;;;;;23.10;36.00;;;;;;1537873;75;745;-65
2023/04/04 05:50:01;;;;;;;;;;;22.90;36.60;;;;;;1539387;75;699;-65
2023/04/04 05:52:03;;;;;;;;;;;22.70;37.30;;;;;;1546447;75;684;-66
2023/04/04 05:54:09;;;;;;;;;;;22.60;37.60;;;;;;1558611;75;1138;-65
2023/04/04 05:56:09;;;;;;;;;;;22.50;37.80;;;;;;1536717;75;1070;-65
2023/04/04 05:58:11;;;;;;;;;;;22.50;37.90;;;;;;1554214;75;1920;-65
2023/04/04 06:00:14;;;;;;;;;;;22.30;38.20;;;;;;1551868;75;1563;-65
2023/04/04 06:02:16;;;;;;;;;;;22.20;38.80;;;;;;1550829;75;708;-66
2023/04/04 06:04:18;;;;;;;;;;;22.10;40.50;;;;;;1555872;75;1130;-65
2023/04/04 06:06:20;;;;;;;;;;;22.00;40.00;;;;;;1563484;74;769;-65
2023/04/04 06:08:22;;;;;;;;;;;22.00;40.20;;;;;;1552112;74;694;-65
2023/04/04 06:10:23;;;;;;;;;;;21.90;40.30;;;;;;1568572;74;753;-65
2023/04/04 06:12:26;;;;;;;;;;;21.90;40.20;;;;;;1560170;74;768;-65
2023/04/04 06:14:27;;;;;;;;;;;21.80;39.90;;;;;;1563331;74;1618;-65
2023/04/04 06:16:30;;;;;;;;;;;21.80;39.70;;;;;;1555855;74;700;-65
2023/04/04 06:18:32;;;;;;;;;;;21.80;39.70;;;;;;1567120;74;1940;-72
2023/04/04 06:20:34;;;;;;;;;;;21.60;39.60;;;;;;1568169;74;746;-65
2023/04/04 06:22:36;;;;;;;;;;;21.60;39.50;;;;;;1568643;74;769;-65
2023/04/04 06:24:38;;;;;;;;;;;21.60;39.50;;;;;;1567896;75;1196;-65
2023/04/04 06:26:39;;;;;;;;;;;21.50;39.60;;;;;;1561200;76;968;-65
2023/04/04 06:28:51;;;;;;;;;;;21.60;39.70;;;;;;1568164;74;1598;-65
2023/04/04 06:30:52;;;;;;;;;;;21.50;39.70;;;;;;1556286;74;838;-66
2023/04/04 06:32:54;;;;;;;;;;;21.40;39.70;;;;;;1548219;74;1146;-65
2023/04/04 06:34:56;;;;;;;;;;;21.40;39.80;;;;;;1561173;74;724;-64
2023/04/04 06:36:58;;;;;;;;;;;21.30;39.70;;;;;;1555138;74;710;-65
2023/04/04 06:39:00;;;;;;;;;;;21.30;39.80;;;;;;1560652;74;1933;-65
2023/04/04 06:41:02;;;;;;;;;;;21.30;39.90;;;;;;1560974;74;756;-65
2023/04/04 06:43:04;;;;;;;;;;;21.30;40.00;;;;;;1554595;74;1675;-65
2023/04/04 06:45:06;;;;;;;;;;;21.20;39.90;;;;;;1555033;74;705;-65
2023/04/04 06:47:08;;;;;;;;;;;21.20;39.90;;;;;;1552544;74;721;-65
2023/04/04 06:49:10;;;;;;;;;;;21.20;40.00;;;;;;1563918;74;690;-65
2023/04/04 06:51:12;;;;;;;;;;;21.20;40.00;;;;;;1553747;74;764;-65
2023/04/04 06:53:14;;;;;;;;;;;21.20;40.60;;;;;;1563654;74;1094;-65
2023/04/04 06:55:16;;;;;;;;;;;21.20;41.40;;;;;;1559073;74;1313;-65
2023/04/04 06:57:18;;;;;;;;;;;21.20;41.70;;;;;;1564640;74;734;-65
2023/04/04 06:59:20;;;;;;;;;;;21.40;42.10;;;;;;1569135;74;1942;-65
2023/04/04 07:01:22;;;;;;;;;;;21.40;42.10;;;;;;1548485;74;758;-66
2023/04/04 07:03:24;;;;;;;;;;;21.50;42.10;;;;;;1563716;74;1147;-66
2023/04/04 07:05:26;;;;;;;;;;;21.50;41.80;;;;;;1559892;74;1093;-65
2023/04/04 07:07:28;;;;;;;;;;;21.70;41.60;;;;;;1561983;75;766;-65
2023/04/04 07:09:30;;;;;;;;;;;21.70;41.30;;;;;;1539763;75;1286;-65
2023/04/04 07:11:32;;;;;;;;;;;21.80;41.00;;;;;;1553384;75;693;-65
2023/04/04 07:13:34;;;;;;;;;;;21.80;40.60;;;;;;1547971;75;1202;-65
2023/04/04 07:15:36;;;;;;;;;;;21.80;40.20;;;;;;1547592;75;781;-65
2023/04/04 07:17:39;;;;;;;;;;;21.90;40.20;;;;;;1543725;75;735;-66
2023/04/04 07:19:41;;;;;;;;;;;21.80;39.90;;;;;;1550449;75;1885;-66
2023/04/04 07:21:43;;;;;;;;;;;21.90;40.00;;;;;;1546178;75;705;-65
2023/04/04 07:23:45;;;;;;;;;;;21.90;39.80;;;;;;1549950;75;1633;-66
2023/04/04 07:25:47;;;;;;;;;;;21.80;39.70;;;;;;1525551;75;743;-65
2023/04/04 07:27:49;;;;;;;;;;;21.90;39.80;;;;;;1531326;76;710;-66
2023/04/04 07:29:51;;;;;;;;;;;21.90;39.60;;;;;;1508152;76;1149;-65
2023/04/04 07:31:53;;;;;;;;;;;21.90;39.50;;;;;;1534495;75;632;-66
2023/04/04 07:33:55;;;;;;;;;;;21.90;39.50;;;;;;1550147;75;1126;-66
2023/04/04 07:35:57;;;;;;;;;;;21.90;39.50;;;;;;1532601;75;720;-65
2023/04/04 07:37:59;;;;;;;;;;;21.90;39.50;;;;;;1542800;75;1939;-65
2023/04/04 07:40:01;;;;;;;;;;;21.90;39.40;;;;;;1531554;75;757;-65
2023/04/04 07:42:02;;;;;;;;;;;21.90;39.40;;;;;;1551559;75;697;-65
2023/04/04 07:44:04;;;;;;;;;;;21.90;39.30;;;;;;1541258;76;1120;-66
2023/04/04 07:46:06;;;;;;;;;;;22.00;39.50;;;;;;1530514;75;725;-66
2023/04/04 07:48:08;;;;;;;;;;;22.00;39.40;;;;;;1554680;75;718;-66
2023/04/04 07:50:10;;;;;;;;;;;22.00;39.30;;;;;;1527062;75;807;-65
2023/04/04 07:52:12;;;;;;;;;;;22.00;39.30;;;;;;1538061;75;1240;-65
2023/04/04 07:54:14;;;;;;;;;;;22.00;39.20;;;;;;1541256;75;1145;-65
2023/04/04 07:56:16;;;;;;;;;;;22.00;39.30;;;;;;1556337;75;653;-65
2023/04/04 07:58:18;;;;;;;;;;;21.90;39.10;;;;;;1547961;75;1932;-65
2023/04/04 08:00:25;;;;;;;;;;;21.80;39.10;;;;;;1537317;75;717;-65
2023/04/04 08:02:26;;;;;;;;;;;21.80;39.20;;;;;;1548700;75;1070;-65
2023/04/04 08:04:28;;;;;;;;;;;21.80;39.20;;;;;;1549454;75;1128;-65
2023/04/04 08:06:30;;;;;;;;;;;21.80;39.30;;;;;;1542935;76;1749;-65
2023/04/04 08:08:32;;;;;;;;;;;21.80;39.40;;;;;;1539300;76;675;-65
2023/04/04 08:10:34;;;;;;;;;;;21.80;39.30;;;;;;1527592;76;714;-65
2023/04/04 08:12:36;;;;;;;;;;;21.70;39.30;;;;;;1534898;76;716;-65
2023/04/04 08:14:38;;;;;;;;;;;21.70;39.30;;;;;;1526670;76;1211;-65
2023/04/04 08:16:40;;;;;;;;;;;21.70;39.40;;;;;;1537978;76;753;-65
2023/04/04 08:18:42;;;;;;;;;;;21.80;39.40;;;;;;1534346;76;1920;-65
2023/04/04 08:20:44;;;;;;;;;;;21.70;39.50;;;;;;1539104;76;1571;-65
2023/04/04 08:22:46;;;;;;;;;;;21.70;39.40;;;;;;1523492;76;724;-66
2023/04/04 08:24:48;;;;;;;;;;;21.70;39.40;;;;;;1526484;76;1157;-66
2023/04/04 08:26:50;;;;;;;;;;;21.70;39.50;;;;;;1533568;76;701;-67
2023/04/04 08:28:52;;;;;;;;;;;21.70;39.50;;;;;;1544661;76;858;-65
2023/04/04 08:30:54;;;;;;;;;;;21.60;39.50;;;;;;1530464;76;812;-65
2023/04/04 08:32:56;;;;;;;;;;;21.70;39.60;;;;;;1536428;76;1121;-65
2023/04/04 08:34:58;;;;;;;;;;;21.60;39.50;;;;;;1522029;76;1592;-66
2023/04/04 08:37:00;;;;;;;;;;;21.60;39.50;;;;;;1530935;76;676;-65
2023/04/04 08:39:02;;;;;;;;;;;21.60;39.60;;;;;;1528825;76;1933;-65
2023/04/04 08:41:04;;;;;;;;;;;21.60;39.70;;;;;;1535753;76;737;-65
2023/04/04 08:43:06;;;;;;;;;;;21.50;39.70;;;;;;1531221;76;1151;-65
2023/04/04 08:45:09;;;;;;;;;;;21.50;39.70;;;;;;1527772;76;771;-66
2023/04/04 08:47:12;;;;;;;;;;;21.50;39.80;;;;;;1534801;76;735;-65
2023/04/04 08:49:14;;;;;;;;;;;21.50;39.80;;;;;;1542206;76;1651;-65
2023/04/04 08:51:16;;;;;;;;;;;21.50;39.80;;;;;;1535516;76;706;-65
2023/04/04 08:53:17;;;;;;;;;;;21.50;39.80;;;;;;1537290;76;1141;-65
2023/04/04 08:55:19;;;;;;;;;;;21.50;39.80;;;;;;1531029;76;721;-65
2023/04/04 08:57:21;;;;;;;;;;;21.50;39.90;;;;;;1529288;76;583;-66
2023/04/04 08:59:23;;;;;;;;;;;21.50;40.00;;;;;;1533762;76;1906;-65
2023/04/04 09:01:28;;;;;;;;;;;21.50;39.90;;;;;;1536860;76;660;-65
2023/04/04 09:03:31;;;;;;;;;;;21.50;40.00;;;;;;1534458;76;1451;-65
2023/04/04 09:05:33;;;;;;;;;;;21.40;39.90;;;;;;1527289;76;1114;-65
2023/04/04 09:07:35;;;;;;;;;;;21.40;39.90;;;;;;1545213;75;1055;-65
2023/04/04 09:09:37;;;;;;;;;;;21.40;40.00;;;;;;1553671;75;758;-65
2023/04/04 09:11:40;;;;;;;;;;;21.50;40.20;;;;;;1538960;75;671;-65
2023/04/04 09:13:42;;;;;;;;;;;21.50;40.10;;;;;;1540966;75;1145;-66
2023/04/04 09:15:48;;;;;;;;;;;21.50;40.10;;;;;;1531609;75;727;-66
2023/04/04 09:17:50;;;;;;;;;;;21.40;40.10;;;;;;1535126;75;1918;-64
2023/04/04 09:19:53;;;;;;;;;;;21.30;40.10;;;;;;1535402;75;1931;-65
2023/04/04 09:21:55;;;;;;;;;;;21.40;40.10;;;;;;1536469;75;704;-66
2023/04/04 09:24:00;;;;;;;;;;;21.40;40.10;;;;;;1535263;75;1155;-64
2023/04/04 09:26:02;;;;;;;;;;;21.40;40.20;;;;;;1538740;75;674;-65
2023/04/04 09:28:04;;;;;;;;;;;21.30;40.20;;;;;;1541481;75;745;-66
2023/04/04 09:30:07;;;;;;;;;;;21.40;40.20;;;;;;1551750;75;1512;-65
2023/04/04 09:32:10;;;;;;;;;;;21.40;40.20;;;;;;1553069;75;719;-65
2023/04/04 09:34:15;;;;;;;;;;;21.50;40.40;;;;;;1549920;75;1115;-65
2023/04/04 09:36:17;;;;;;;;;;;21.50;40.40;;;;;;1547762;75;682;-65
2023/04/04 09:38:20;;;;;;;;;;;21.50;40.40;;;;;;1537040;75;737;-66
2023/04/04 09:40:22;;;;;;;;;;;21.40;40.20;;;;;;1550485;75;1927;-66
2023/04/04 09:42:25;;;;;;;;;;;21.40;40.20;;;;;;1533427;75;813;-65
2023/04/04 09:44:28;;;;;;;;;;;21.40;40.20;;;;;;1520970;76;1567;-65
2023/04/04 09:46:30;;;;;;;;;;;21.30;40.20;;;;;;1533486;75;739;-65
2023/04/04 09:48:33;;;;;;;;;;;21.40;40.20;;;;;;1550191;75;672;-66
2023/04/04 09:50:35;;;;;;;;;;;21.40;40.20;;;;;;1547102;75;706;-65
2023/04/04 09:52:37;;;;;;;;;;;21.40;40.20;;;;;;1538883;75;741;-65
2023/04/04 09:54:39;;;;;;;;;;;21.40;40.20;;;;;;1547607;75;1138;-65
2023/04/04 09:56:43;;;;;;;;;;;21.30;40.20;;;;;;1552974;75;765;-65
2023/04/04 09:58:47;;;;;;;;;;;21.40;40.20;;;;;;1536934;75;1924;-65
2023/04/04 10:00:50;;;;;;;;;;;21.30;40.20;;;;;;1514395;76;755;-65
2023/04/04 10:02:52;;;;;;;;;;;21.30;40.20;;;;;;1556481;75;1503;-65
2023/04/04 10:04:56;;;;;;;;;;;21.20;40.20;;;;;;1544583;75;1150;-65
2023/04/04 10:06:59;;;;;;;;;;;21.20;40.20;;;;;;1537318;75;1119;-65
2023/04/04 10:09:02;;;;;;;;;;;21.30;40.30;;;;;;1537525;75;724;-68
2023/04/04 10:11:05;;;;;;;;;;;21.30;40.40;;;;;;1549775;75;1039;-65
2023/04/04 10:15:47;;;;;;;;;;;21.20;40.20;;;;;;1531751;75;1697;-65
2023/04/04 10:17:48;;;;;;;;;;;21.20;40.30;;;;;;1536071;75;797;-65
2023/04/04 10:19:51;;;;;;;;;;;21.30;40.50;;;;;;1548439;75;1925;-65
2023/04/04 10:21:54;;;;;;;;;;;21.20;40.40;;;;;;1538606;75;611;-66
2023/04/04 10:23:56;;;;;;;;;;;21.30;40.50;;;;;;1553391;75;1189;-65
2023/04/04 10:25:58;;;;;;;;;;;21.30;40.60;;;;;;1551225;75;619;-66
2023/04/04 10:28:00;;;;;;;;;;;21.20;40.40;;;;;;1555951;75;1644;-65
2023/04/04 10:30:02;;;;;;;;;;;21.30;40.50;;;;;;1534653;75;745;-65
2023/04/04 10:32:05;;;;;;;;;;;21.20;40.40;;;;;;1532436;75;719;-65
2023/04/04 10:34:12;;;;;;;;;;;21.20;40.40;;;;;;1546274;75;1138;-65
2023/04/04 10:36:14;;;;;;;;;;;21.20;40.30;;;;;;1540707;75;702;-65
2023/04/04 10:38:17;;;;;;;;;;;21.20;40.40;;;;;;1545591;75;599;-65
2023/04/04 10:40:19;;;;;;;;;;;21.20;40.40;;;;;;1542066;75;1933;-65
2023/04/04 10:42:22;;;;;;;;;;;21.10;40.40;;;;;;1541385;75;727;-66
2023/04/04 10:44:26;;;;;;;;;;;21.20;40.40;;;;;;1547483;75;1140;-65
2023/04/04 10:46:29;;;;;;;;;;;21.20;40.50;;;;;;1536255;75;1187;-66
2023/04/04 10:48:31;;;;;;;;;;;21.20;40.40;;;;;;1537516;75;1379;-65
2023/04/04 10:50:34;;;;;;;;;;;21.20;40.50;;;;;;1548838;75;750;-65
2023/04/04 10:52:37;;;;;;;;;;;21.20;40.50;;;;;;1525927;76;664;-65
2023/04/04 10:54:40;;;;;;;;;;;21.20;40.50;;;;;;1540972;75;1355;-64
2023/04/04 10:56:41;;;;;;;;;;;21.20;40.50;;;;;;1550754;75;602;-68
2023/04/04 10:58:43;;;;;;;;;;;21.20;40.50;;;;;;1549869;75;689;-66
2023/04/04 11:00:47;;;;;;;;;;;21.10;40.50;;;;;;1542179;75;1938;-66
2023/04/04 11:02:50;;;;;;;;;;;21.10;40.50;;;;;;1542871;75;1029;-66
2023/04/04 11:04:54;;;;;;;;;;;21.10;40.50;;;;;;1539683;75;1070;-71
2023/04/04 11:07:09;;;;;;;;;;;21.20;40.50;;;;;;1532335;76;948;-65
2023/04/04 11:09:11;;;;;;;;;;;21.10;40.50;;;;;;1541260;75;1469;-65
2023/04/04 11:11:13;;;;;;;;;;;21.10;40.60;;;;;;1542346;75;717;-65
2023/04/04 11:13:16;;;;;;;;;;;21.20;40.60;;;;;;1546118;75;1190;-65
2023/04/04 11:15:20;;;;;;;;;;;21.10;40.60;;;;;;1543004;75;842;-66
2023/04/04 11:17:40;;;;;;;;;;;21.20;40.60;;;;;;1527471;76;796;-65
2023/04/04 11:19:44;;;;;;;;;;;21.20;40.60;;;;;;1538264;75;1915;-66
2023/04/04 11:21:46;;;;;;;;;;;21.10;40.60;;;;;;1552707;75;1136;-65
2023/04/04 11:23:50;;;;;;;;;;;21.10;40.60;;;;;;1539611;75;1532;-65
2023/04/04 11:25:55;;;;;;;;;;;21.10;40.60;;;;;;1552400;75;643;-65
2023/04/04 11:27:57;;;;;;;;;;;21.10;40.60;;;;;;1553511;75;777;-65
2023/04/04 11:29:59;;;;;;;;;;;21.10;40.60;;;;;;1550446;75;725;-65
2023/04/04 11:32:01;;;;;;;;;;;21.20;40.60;;;;;;1525796;75;681;-65
2023/04/04 11:34:12;;;;;;;;;;;21.20;40.60;;;;;;1535160;75;1190;-65
2023/04/04 11:36:16;;;;;;;;;;;21.10;40.70;;;;;;1539665;75;725;-65
2023/04/04 11:38:18;;;;;;;;;;;21.10;40.60;;;;;;1533767;75;1426;-66
2023/04/04 11:40:21;;;;;;;;;;;21.10;40.70;;;;;;1544268;75;1943;-66
2023/04/04 11:42:23;;;;;;;;;;;21.10;40.60;;;;;;1531142;75;680;-65
2023/04/04 11:44:31;;;;;;;;;;;21.10;40.70;;;;;;1544330;75;1137;-66
2023/04/04 11:46:29;;;;;;;;;;;21.10;40.70;;;;;;1542403;75;1059;-66
2023/04/04 11:48:31;;;;;;;;;;;21.10;40.70;;;;;;1544863;75;757;-66
2023/04/04 11:50:36;;;;;;;;;;;21.00;40.50;;;;;;1539196;75;1588;-66
2023/04/04 11:52:38;;;;;;;;;;;21.10;40.60;;;;;;1546113;75;636;-65
2023/04/04 11:54:40;;;;;;;;;;;21.10;40.70;;;;;;1550597;75;1145;-65
2023/04/04 11:56:46;;;;;;;;;;;21.10;40.70;;;;;;1552287;75;769;-65
2023/04/04 11:58:48;;;;;;;;;;;21.10;40.60;;;;;;1550005;75;717;-64
2023/04/04 12:00:50;;;;;;;;;;;21.00;40.60;;;;;;1554272;75;1935;-71
2023/04/04 12:02:52;;;;;;;;;;;21.00;40.60;;;;;;1542783;75;782;-71
2023/04/04 12:04:54;;;;;;;;;;;21.00;40.60;;;;;;1531513;75;1268;-65
2023/04/04 12:06:56;;;;;;;;;;;21.00;40.60;;;;;;1515248;76;698;-66
2023/04/04 12:08:58;;;;;;;;;;;21.00;40.60;;;;;;1534458;75;1109;-65
2023/04/04 12:11:02;;;;;;;;;;;21.00;40.70;;;;;;1563338;75;716;-65